Time;durP1;ratioP1;P1;durP2;ratioP2;P2;SDS_P1;SDS_P2;PMS_P1;PMS_P2;Temp;Humidity;BMP_temperature;BMP_pressure;BME280_temperature;BME280_humidity;BME280_pressure;Samples;Min_cycle;Max_cycle;Signal;HPM_P1;HPM_P2
2022/12/04 00:00:08;;;;;;;0.20;0.20;;;2.20;99.90;;;;;;5051715;28;20216;-67
2022/12/04 00:02:34;;;;;;;0.13;0.13;;;2.20;99.90;;;;;;5049741;28;20235;-67
2022/12/04 00:05:01;;;;;;;0.00;0.00;;;2.20;99.90;;;;;;5044667;28;20190;-67
2022/12/04 00:07:26;;;;;;;0.00;0.00;;;2.20;99.90;;;;;;5051769;28;20261;-67
2022/12/04 00:09:52;;;;;;;1.65;1.08;;;2.20;99.90;;;;;;5051384;28;20316;-67
2022/12/04 00:12:18;;;;;;;0.75;0.10;;;2.20;99.90;;;;;;5051445;28;20234;-66
2022/12/04 00:14:43;;;;;;;0.00;0.00;;;2.20;99.90;;;;;;5051796;28;20275;-66
2022/12/04 00:17:09;;;;;;;0.73;0.40;;;2.20;99.90;;;;;;5051624;28;20181;-66
2022/12/04 00:19:34;;;;;;;0.00;0.00;;;2.20;99.90;;;;;;5051787;28;20181;-66
2022/12/04 00:22:00;;;;;;;0.05;0.05;;;2.20;99.90;;;;;;5051389;28;20180;-66
2022/12/04 00:24:25;;;;;;;0.43;0.35;;;2.20;99.90;;;;;;5051585;28;20615;-66
2022/12/04 00:26:51;;;;;;;0.38;0.38;;;2.20;99.90;;;;;;5051542;28;20192;-66
2022/12/04 00:29:17;;;;;;;0.00;0.00;;;2.20;99.90;;;;;;5051508;28;20181;-66
2022/12/04 00:31:43;;;;;;;0.00;0.00;;;2.20;99.90;;;;;;5050623;28;20602;-66
2022/12/04 00:34:09;;;;;;;0.00;0.00;;;2.20;99.90;;;;;;5051179;28;20252;-66
2022/12/04 00:36:34;;;;;;;0.40;0.38;;;2.20;99.90;;;;;;5051232;28;20182;-67
2022/12/04 00:39:00;;;;;;;0.60;0.60;;;2.20;99.90;;;;;;5051366;28;20185;-66
2022/12/04 00:41:27;;;;;;;0.20;0.20;;;2.20;99.90;;;;;;5051300;28;20710;-67
2022/12/04 00:43:53;;;;;;;0.20;0.20;;;2.10;99.90;;;;;;5051076;28;20182;-67
2022/12/04 00:46:19;;;;;;;0.00;0.00;;;2.10;99.90;;;;;;5051256;28;20196;-66
2022/12/04 00:48:45;;;;;;;0.00;0.00;;;2.10;99.90;;;;;;5051231;28;20212;-66
2022/12/04 00:51:14;;;;;;;0.28;0.28;;;2.10;99.90;;;;;;5051211;28;20203;-67
2022/12/04 00:53:39;;;;;;;0.00;0.00;;;2.10;99.90;;;;;;5051131;28;20672;-66
2022/12/04 00:56:08;;;;;;;1.30;1.20;;;2.20;99.90;;;;;;5056703;28;20261;-67
2022/12/04 00:58:34;;;;;;;0.45;0.45;;;2.20;99.90;;;;;;5051254;28;20201;-67
2022/12/04 01:01:09;;;;;;;0.32;0.30;;;2.20;99.90;;;;;;5050999;28;20722;-67
2022/12/04 01:03:34;;;;;;;0.20;0.20;;;2.20;99.90;;;;;;5040884;28;20380;-67
2022/12/04 01:06:00;;;;;;;0.00;0.00;;;2.20;99.90;;;;;;5047615;28;20535;-67
2022/12/04 01:08:26;;;;;;;0.00;0.00;;;2.20;99.90;;;;;;5050736;28;20185;-67
2022/12/04 01:10:51;;;;;;;0.00;0.00;;;2.20;99.90;;;;;;5050538;28;20719;-67
2022/12/04 01:13:17;;;;;;;0.40;0.35;;;2.20;99.90;;;;;;5050590;28;20213;-66
2022/12/04 01:15:42;;;;;;;0.10;0.10;;;2.20;99.90;;;;;;5051059;28;20209;-67
2022/12/04 01:18:09;;;;;;;0.38;0.38;;;2.20;99.90;;;;;;5050448;28;20186;-67
2022/12/04 01:20:36;;;;;;;0.00;0.00;;;2.20;99.90;;;;;;5050799;28;20197;-67
2022/12/04 01:23:02;;;;;;;0.10;0.10;;;2.20;99.90;;;;;;5050992;28;20181;-67
2022/12/04 01:25:27;;;;;;;0.98;0.40;;;2.20;99.90;;;;;;5049595;28;20284;-67
2022/12/04 01:27:53;;;;;;;0.10;0.10;;;2.20;99.90;;;;;;5050540;28;20268;-67
2022/12/04 01:30:18;;;;;;;0.20;0.20;;;2.20;99.90;;;;;;5051170;28;20178;-66
2022/12/04 01:32:44;;;;;;;0.00;0.00;;;2.20;99.90;;;;;;5050427;28;20622;-67
2022/12/04 01:35:09;;;;;;;0.00;0.00;;;2.30;99.90;;;;;;5050755;28;20181;-67
2022/12/04 01:37:35;;;;;;;0.10;0.10;;;2.30;99.90;;;;;;5050612;28;20664;-67
2022/12/04 01:40:00;;;;;;;0.00;0.00;;;2.30;99.90;;;;;;5050438;28;20530;-67
2022/12/04 01:42:26;;;;;;;0.40;0.40;;;2.30;99.90;;;;;;5051496;28;20184;-67
2022/12/04 01:45:29;;;;;;;0.77;0.77;;;2.30;99.90;;;;;;5053111;28;20474;-67
2022/12/04 01:48:02;;;;;;;0.13;0.13;;;2.50;99.90;;;;;;5050390;28;20223;-67
2022/12/04 01:50:28;;;;;;;1.67;0.38;;;2.50;99.90;;;;;;5038647;28;20186;-67
2022/12/04 01:52:54;;;;;;;0.00;0.00;;;2.50;99.90;;;;;;5054106;28;20552;-66
2022/12/04 01:55:20;;;;;;;0.08;0.08;;;2.50;99.90;;;;;;5053880;28;20447;-67
2022/12/04 01:57:45;;;;;;;0.38;0.38;;;2.40;99.90;;;;;;5049704;28;20185;-67
2022/12/04 02:00:14;;;;;;;0.00;0.00;;;2.40;99.90;;;;;;5052217;28;20182;-66
2022/12/04 02:02:45;;;;;;;0.30;0.30;;;2.30;99.90;;;;;;5050656;28;20174;-66
2022/12/04 02:05:13;;;;;;;0.00;0.00;;;2.30;99.90;;;;;;5043541;28;20183;-67
2022/12/04 02:07:40;;;;;;;0.00;0.00;;;2.40;99.90;;;;;;5053341;28;20515;-66
2022/12/04 02:10:07;;;;;;;0.20;0.20;;;2.30;99.90;;;;;;5053230;28;20270;-67
2022/12/04 02:12:52;;;;;;;0.00;0.00;;;2.40;99.90;;;;;;5053607;28;20205;-66
2022/12/04 02:15:22;;;;;;;0.13;0.13;;;2.30;99.90;;;;;;5053648;28;20224;-67
2022/12/04 02:18:02;;;;;;;0.00;0.00;;;2.30;99.90;;;;;;5053353;28;20228;-67
2022/12/04 02:20:31;;;;;;;0.38;0.38;;;2.30;99.90;;;;;;5053164;28;20185;-66
2022/12/04 02:23:19;;;;;;;0.17;0.17;;;2.30;99.90;;;;;;5053336;28;20188;-67
2022/12/04 02:26:16;;;;;;;0.00;0.00;;;2.40;99.90;;;;;;5053468;28;20184;-67
2022/12/04 02:28:56;;;;;;;0.00;0.00;;;2.40;99.90;;;;;;5053465;28;20509;-67
2022/12/04 02:31:33;;;;;;;0.45;0.40;;;2.40;99.90;;;;;;5053424;28;20625;-66
2022/12/04 02:34:27;;;;;;;0.00;0.00;;;2.40;99.90;;;;;;5052970;28;20208;-67
2022/12/04 02:37:03;;;;;;;0.00;0.00;;;2.30;99.90;;;;;;5052961;28;20239;-66
2022/12/04 02:39:39;;;;;;;0.38;0.38;;;2.40;99.90;;;;;;5053140;28;20187;-66
2022/12/04 02:42:23;;;;;;;0.75;0.75;;;2.40;99.90;;;;;;5053060;28;20208;-66
2022/12/04 02:44:54;;;;;;;0.08;0.08;;;2.40;99.90;;;;;;5043707;28;20185;-66
2022/12/04 02:47:22;;;;;;;0.00;0.00;;;2.40;99.90;;;;;;5052601;28;20272;-66
2022/12/04 02:50:06;;;;;;;0.10;0.10;;;2.40;99.90;;;;;;5052444;28;20182;-67
2022/12/04 02:52:38;;;;;;;0.00;0.00;;;2.40;99.90;;;;;;5052443;28;20617;-67
2022/12/04 02:55:13;;;;;;;0.00;0.00;;;2.40;99.90;;;;;;5037085;28;20177;-66
2022/12/04 02:57:44;;;;;;;0.10;0.10;;;2.40;99.90;;;;;;5052502;28;20243;-66
2022/12/04 03:00:10;;;;;;;0.43;0.43;;;2.40;99.90;;;;;;5052429;28;20177;-66
2022/12/04 03:02:44;;;;;;;0.10;0.10;;;2.50;99.90;;;;;;5048964;28;20530;-66
2022/12/04 03:05:13;;;;;;;0.63;0.28;;;2.50;99.90;;;;;;5052286;28;20188;-66
2022/12/04 03:07:52;;;;;;;0.43;0.43;;;2.50;99.90;;;;;;5051662;28;20656;-66
2022/12/04 03:10:28;;;;;;;0.05;0.05;;;2.40;99.90;;;;;;5051124;28;20278;-66
2022/12/04 03:13:16;;;;;;;0.08;0.08;;;2.40;99.90;;;;;;5052253;28;20205;-66
2022/12/04 03:15:46;;;;;;;0.10;0.10;;;2.40;99.90;;;;;;5052737;28;20327;-66
2022/12/04 03:18:26;;;;;;;0.00;0.00;;;2.40;99.90;;;;;;5048076;28;20186;-66
2022/12/04 03:20:58;;;;;;;0.00;0.00;;;2.40;99.90;;;;;;5052121;28;20205;-66
2022/12/04 03:23:32;;;;;;;0.00;0.00;;;2.50;99.90;;;;;;5051230;28;20181;-66
2022/12/04 03:26:20;;;;;;;0.00;0.00;;;2.50;99.90;;;;;;5052281;28;20188;-66
2022/12/04 03:29:03;;;;;;;0.00;0.00;;;2.50;99.90;;;;;;5051888;28;20189;-66
2022/12/04 03:31:42;;;;;;;0.00;0.00;;;2.50;99.90;;;;;;5052304;28;20273;-66
2022/12/04 03:34:10;;;;;;;0.03;0.03;;;2.50;99.90;;;;;;5051985;28;20295;-66
2022/12/04 03:36:42;;;;;;;0.17;0.17;;;2.50;99.90;;;;;;5052050;28;20268;-66
2022/12/04 03:39:25;;;;;;;0.20;0.20;;;2.60;99.90;;;;;;5052338;28;20543;-66
2022/12/04 03:41:56;;;;;;;0.00;0.00;;;2.60;99.90;;;;;;5052132;28;20181;-66
2022/12/04 03:44:36;;;;;;;0.00;0.00;;;2.60;99.90;;;;;;5052039;28;20189;-66
2022/12/04 03:47:15;;;;;;;0.00;0.00;;;2.60;99.90;;;;;;5052054;28;20185;-66
2022/12/04 03:49:49;;;;;;;0.30;0.30;;;2.60;99.90;;;;;;5051624;28;20632;-66
2022/12/04 03:52:46;;;;;;;0.00;0.00;;;2.60;99.90;;;;;;5050658;28;20188;-66
2022/12/04 03:55:14;;;;;;;0.10;0.10;;;2.50;99.90;;;;;;5050891;28;20531;-66
2022/12/04 03:57:44;;;;;;;0.30;0.30;;;2.50;99.90;;;;;;5051704;28;20181;-66
2022/12/04 04:00:15;;;;;;;0.00;0.00;;;2.60;99.90;;;;;;5051747;28;20217;-66
2022/12/04 04:02:47;;;;;;;0.00;0.00;;;2.60;99.90;;;;;;5048764;28;20178;-66
2022/12/04 04:05:15;;;;;;;0.25;0.25;;;2.60;99.90;;;;;;5038165;28;20204;-66
2022/12/04 04:07:49;;;;;;;0.20;0.20;;;2.60;99.90;;;;;;5051034;28;20196;-67
2022/12/04 04:10:18;;;;;;;0.10;0.10;;;2.60;99.90;;;;;;5051361;28;20356;-67
2022/12/04 04:24:37;;;;;;;0.00;0.00;;;2.60;99.90;;;;;;5029265;28;20247;-66
2022/12/04 04:27:03;;;;;;;0.00;0.00;;;2.60;99.90;;;;;;5049721;28;20193;-66
2022/12/04 04:29:29;;;;;;;0.00;0.00;;;2.70;99.90;;;;;;5051509;28;20181;-66
2022/12/04 04:32:03;;;;;;;0.20;0.20;;;2.60;99.90;;;;;;5051202;28;20204;-66
2022/12/04 04:34:51;;;;;;;0.00;0.00;;;2.60;99.90;;;;;;5051290;28;20283;-67
2022/12/04 04:37:33;;;;;;;0.40;0.40;;;2.60;99.90;;;;;;5051357;28;20611;-66
2022/12/04 04:40:34;;;;;;;0.00;0.00;;;2.60;99.90;;;;;;5051104;28;20177;-66
2022/12/04 04:43:13;;;;;;;0.00;0.00;;;2.60;99.90;;;;;;5050953;28;20530;-66
2022/12/04 04:45:47;;;;;;;0.00;0.00;;;2.60;99.90;;;;;;5050976;28;20185;-67
2022/12/04 04:48:55;;;;;;;0.00;0.00;;;2.60;99.90;;;;;;5042621;28;20704;-66
2022/12/04 04:51:21;;;;;;;0.00;0.00;;;2.60;99.90;;;;;;5036899;28;20189;-66
2022/12/04 04:53:54;;;;;;;0.00;0.00;;;2.60;99.90;;;;;;5051291;28;20576;-66
2022/12/04 04:56:20;;;;;;;0.85;0.20;;;2.60;99.90;;;;;;5049209;28;20185;-66
2022/12/04 04:58:46;;;;;;;0.10;0.10;;;2.60;99.90;;;;;;5051200;28;20268;-66
2022/12/04 05:01:18;;;;;;;0.20;0.20;;;2.60;99.90;;;;;;5050660;28;20707;-67
2022/12/04 05:03:43;;;;;;;0.00;0.00;;;2.60;99.90;;;;;;5046335;28;20538;-66
2022/12/04 05:06:09;;;;;;;0.25;0.25;;;2.60;99.90;;;;;;5050969;28;20189;-66
2022/12/04 05:08:35;;;;;;;0.10;0.10;;;2.60;99.90;;;;;;5050668;28;20739;-66
2022/12/04 05:11:01;;;;;;;0.10;0.10;;;2.60;99.90;;;;;;5050838;28;20287;-66
2022/12/04 05:13:28;;;;;;;0.00;0.00;;;2.70;99.90;;;;;;5050528;28;20248;-66
2022/12/04 05:16:02;;;;;;;0.00;0.00;;;2.70;99.90;;;;;;5050956;28;20170;-66
2022/12/04 05:18:29;;;;;;;0.00;0.00;;;2.70;99.90;;;;;;5053029;28;20188;-66
2022/12/04 05:20:55;;;;;;;0.00;0.00;;;2.60;99.90;;;;;;5054621;28;20274;-66
2022/12/04 05:23:21;;;;;;;0.00;0.00;;;2.60;99.90;;;;;;5054795;28;20182;-66
2022/12/04 05:25:46;;;;;;;0.00;0.00;;;2.70;99.90;;;;;;5054428;28;20178;-66
2022/12/04 05:28:12;;;;;;;0.47;0.47;;;2.70;99.90;;;;;;5054720;28;20569;-66
2022/12/04 05:30:38;;;;;;;0.00;0.00;;;2.70;99.90;;;;;;5054537;28;20173;-66
2022/12/04 05:33:04;;;;;;;0.00;0.00;;;2.70;99.90;;;;;;5054421;28;20672;-66
2022/12/04 05:35:29;;;;;;;0.00;0.00;;;2.70;99.90;;;;;;5054508;28;20182;-66
2022/12/04 05:37:55;;;;;;;0.00;0.00;;;2.70;99.90;;;;;;5054398;28;20173;-66
2022/12/04 05:40:20;;;;;;;0.00;0.00;;;2.70;99.90;;;;;;5054171;28;20181;-66
2022/12/04 05:42:46;;;;;;;0.32;0.32;;;2.70;99.90;;;;;;5054602;28;20187;-66
2022/12/04 05:45:11;;;;;;;0.22;0.22;;;2.70;99.90;;;;;;5054225;28;20181;-67
2022/12/04 05:47:38;;;;;;;0.00;0.00;;;2.70;99.90;;;;;;5053990;28;20531;-67
2022/12/04 05:50:06;;;;;;;0.00;0.00;;;2.70;99.90;;;;;;5054264;28;20181;-66
2022/12/04 05:52:31;;;;;;;0.00;0.00;;;2.80;99.90;;;;;;5052781;28;20209;-66
2022/12/04 05:54:57;;;;;;;0.00;0.00;;;2.80;99.90;;;;;;5053705;28;20220;-67
2022/12/04 05:57:22;;;;;;;0.00;0.00;;;2.80;99.90;;;;;;5042154;28;20209;-66
2022/12/04 05:59:49;;;;;;;0.00;0.00;;;2.80;99.90;;;;;;5054005;28;20189;-66
2022/12/04 06:02:15;;;;;;;0.00;0.00;;;2.80;99.90;;;;;;5054259;28;20178;-66
2022/12/04 06:04:41;;;;;;;0.10;0.10;;;2.80;99.90;;;;;;5054903;28;20691;-66
2022/12/04 06:07:06;;;;;;;0.00;0.00;;;2.80;99.90;;;;;;5054346;28;20173;-66
2022/12/04 06:09:32;;;;;;;0.00;0.00;;;2.80;99.90;;;;;;5053735;28;20185;-66
2022/12/04 06:11:58;;;;;;;0.03;0.03;;;2.80;99.90;;;;;;5039214;28;20696;-66
2022/12/04 06:14:24;;;;;;;0.52;0.52;;;2.80;99.90;;;;;;5053480;28;20283;-66
2022/12/04 06:16:49;;;;;;;0.20;0.20;;;2.80;99.90;;;;;;5053687;28;20644;-66
2022/12/04 06:19:17;;;;;;;0.00;0.00;;;2.80;99.90;;;;;;5053695;28;20238;-66
2022/12/04 06:21:45;;;;;;;0.00;0.00;;;2.80;99.90;;;;;;5053355;28;20184;-66
2022/12/04 06:24:16;;;;;;;0.20;0.20;;;2.80;99.90;;;;;;5053623;28;20231;-66
2022/12/04 06:26:42;;;;;;;0.00;0.00;;;2.80;99.90;;;;;;5053328;28;20192;-67
2022/12/04 06:29:09;;;;;;;0.00;0.00;;;2.80;99.90;;;;;;5052712;28;20181;-66
2022/12/04 06:31:36;;;;;;;0.00;0.00;;;2.80;99.90;;;;;;5053051;28;20291;-66
2022/12/04 06:34:03;;;;;;;0.30;0.30;;;2.80;99.90;;;;;;5053299;28;20703;-66
2022/12/04 06:36:29;;;;;;;0.00;0.00;;;2.80;99.90;;;;;;5053323;28;20201;-66
2022/12/04 06:38:56;;;;;;;0.15;0.15;;;2.80;99.90;;;;;;5053164;28;20660;-67
2022/12/04 06:41:23;;;;;;;0.10;0.10;;;2.80;99.90;;;;;;5053238;28;20251;-66
2022/12/04 06:43:50;;;;;;;0.00;0.00;;;2.80;99.90;;;;;;5052974;28;20285;-66
2022/12/04 06:46:18;;;;;;;0.00;0.00;;;2.80;99.90;;;;;;5052913;28;20571;-66
2022/12/04 06:48:44;;;;;;;0.10;0.10;;;2.80;99.90;;;;;;5053055;28;20604;-66
2022/12/04 06:51:14;;;;;;;0.00;0.00;;;2.80;99.90;;;;;;5053123;28;20273;-66
2022/12/04 06:53:40;;;;;;;0.00;0.00;;;2.80;99.90;;;;;;5052310;28;20214;-66
2022/12/04 06:56:08;;;;;;;0.00;0.00;;;2.80;99.90;;;;;;5050870;28;20641;-66
2022/12/04 06:58:35;;;;;;;0.00;0.00;;;2.80;99.90;;;;;;5053071;28;20318;-67
2022/12/04 07:01:06;;;;;;;0.90;0.20;;;2.80;99.90;;;;;;5053025;28;20193;-67
2022/12/04 07:03:32;;;;;;;0.00;0.00;;;2.80;99.90;;;;;;5051129;28;20718;-67
2022/12/04 07:05:58;;;;;;;0.10;0.10;;;2.80;99.90;;;;;;5052343;28;20190;-67
2022/12/04 07:08:23;;;;;;;0.45;0.40;;;2.80;99.90;;;;;;5053004;28;20193;-66
2022/12/04 07:10:49;;;;;;;0.00;0.00;;;2.80;99.90;;;;;;5052260;28;20217;-66
2022/12/04 07:13:14;;;;;;;0.10;0.10;;;2.80;99.90;;;;;;5052389;28;20300;-67
2022/12/04 07:15:40;;;;;;;0.00;0.00;;;2.80;99.90;;;;;;5052487;28;20178;-66
2022/12/04 07:18:05;;;;;;;0.22;0.05;;;2.80;99.90;;;;;;5052123;28;20641;-66
2022/12/04 07:20:31;;;;;;;0.20;0.20;;;2.80;99.90;;;;;;5052538;28;20189;-66
2022/12/04 07:22:57;;;;;;;0.00;0.00;;;2.80;99.90;;;;;;5052267;28;20181;-66
2022/12/04 07:25:22;;;;;;;0.05;0.05;;;2.80;99.90;;;;;;5052136;28;20174;-66
2022/12/04 07:27:48;;;;;;;0.00;0.00;;;2.80;99.90;;;;;;5051916;28;20544;-66
2022/12/04 07:30:13;;;;;;;0.08;0.08;;;2.80;99.90;;;;;;5052425;28;20170;-67
2022/12/04 07:32:39;;;;;;;0.00;0.00;;;2.80;99.90;;;;;;5051854;28;20205;-66
2022/12/04 07:35:05;;;;;;;0.00;0.00;;;2.90;99.90;;;;;;5052247;28;20633;-67
2022/12/04 07:37:30;;;;;;;0.38;0.38;;;2.90;99.90;;;;;;5052139;28;20178;-67
2022/12/04 07:39:56;;;;;;;0.00;0.00;;;2.90;99.90;;;;;;5051331;28;20193;-67
2022/12/04 07:42:22;;;;;;;0.08;0.08;;;2.90;99.90;;;;;;5051644;28;20174;-66
2022/12/04 07:44:47;;;;;;;0.13;0.13;;;2.90;99.90;;;;;;5052164;28;20707;-66
2022/12/04 07:47:13;;;;;;;0.00;0.00;;;3.00;99.90;;;;;;5052321;28;20185;-66
2022/12/04 07:49:39;;;;;;;0.00;0.00;;;3.00;99.90;;;;;;5051971;28;20271;-66
2022/12/04 07:52:05;;;;;;;0.15;0.15;;;3.00;99.90;;;;;;5051680;28;20185;-66
2022/12/04 07:54:31;;;;;;;0.00;0.00;;;3.00;99.90;;;;;;5050620;28;20209;-61
2022/12/04 07:56:56;;;;;;;0.00;0.00;;;3.00;99.90;;;;;;5051573;28;20679;-62
2022/12/04 07:59:22;;;;;;;0.05;0.05;;;3.00;99.90;;;;;;5051831;28;20207;-64
2022/12/04 08:01:48;;;;;;;0.00;0.00;;;3.00;99.90;;;;;;5050914;28;20180;-66
2022/12/04 08:04:13;;;;;;;0.00;0.00;;;3.00;99.90;;;;;;5050783;28;20174;-65
2022/12/04 08:06:39;;;;;;;0.32;0.32;;;3.00;99.90;;;;;;5050910;28;20219;-64
2022/12/04 08:09:05;;;;;;;0.22;0.22;;;3.00;99.90;;;;;;5051657;28;20668;-67
2022/12/04 08:11:31;;;;;;;0.15;0.15;;;3.00;99.90;;;;;;5051456;28;20229;-67
2022/12/04 08:14:01;;;;;;;0.00;0.00;;;3.00;99.90;;;;;;5050842;28;20226;-66
2022/12/04 08:16:29;;;;;;;0.00;0.00;;;3.00;99.90;;;;;;5051026;28;20182;-66
2022/12/04 08:18:55;;;;;;;0.00;0.00;;;3.00;99.90;;;;;;5051573;28;20196;-67
2022/12/04 08:21:23;;;;;;;0.13;0.13;;;3.00;99.90;;;;;;5051488;28;20181;-65
2022/12/04 08:23:51;;;;;;;0.05;0.05;;;3.00;99.90;;;;;;5051313;28;20189;-64
2022/12/04 08:26:17;;;;;;;0.35;0.35;;;3.00;99.90;;;;;;5051313;28;20181;-65
2022/12/04 08:28:43;;;;;;;0.05;0.05;;;3.00;99.90;;;;;;5050988;28;20174;-65
2022/12/04 08:31:18;;;;;;;0.00;0.00;;;3.00;99.90;;;;;;5049925;28;20177;-65
2022/12/04 08:33:45;;;;;;;0.10;0.10;;;3.00;99.90;;;;;;5031743;28;20688;-65
2022/12/04 08:36:13;;;;;;;0.10;0.10;;;3.00;99.90;;;;;;5046034;28;20231;-65
2022/12/04 08:38:38;;;;;;;0.20;0.20;;;3.00;99.90;;;;;;5051494;28;20219;-66
2022/12/04 08:41:06;;;;;;;0.10;0.10;;;3.10;99.90;;;;;;5051813;28;20173;-66
2022/12/04 08:43:32;;;;;;;0.00;0.00;;;3.10;99.90;;;;;;5051727;28;20250;-65
2022/12/04 08:45:59;;;;;;;0.13;0.13;;;3.10;99.90;;;;;;5051346;28;20640;-66
2022/12/04 08:48:25;;;;;;;0.00;0.00;;;3.10;99.90;;;;;;5051541;28;20185;-66
2022/12/04 08:50:51;;;;;;;0.17;0.17;;;3.10;99.90;;;;;;5051860;28;20176;-65
2022/12/04 08:53:17;;;;;;;0.00;0.00;;;3.00;99.90;;;;;;5053400;28;20426;-65
2022/12/04 08:55:43;;;;;;;0.55;0.52;;;3.00;99.90;;;;;;5053464;28;20170;-65
2022/12/04 08:58:08;;;;;;;0.20;0.15;;;3.10;99.90;;;;;;5048653;28;20193;-65
2022/12/04 09:00:34;;;;;;;0.10;0.10;;;3.10;99.90;;;;;;5055227;28;20185;-65
2022/12/04 09:02:59;;;;;;;0.00;0.00;;;3.10;99.90;;;;;;5055066;28;20180;-65
2022/12/04 09:05:25;;;;;;;0.17;0.17;;;3.10;99.90;;;;;;5055143;28;20268;-65
2022/12/04 09:07:50;;;;;;;0.00;0.00;;;3.10;99.90;;;;;;5055290;28;20278;-65
2022/12/04 09:10:16;;;;;;;0.10;0.10;;;3.20;99.90;;;;;;5055406;28;20233;-65
2022/12/04 09:12:42;;;;;;;0.05;0.05;;;3.20;99.90;;;;;;5055586;28;20174;-65
2022/12/04 09:15:08;;;;;;;0.00;0.00;;;3.30;99.90;;;;;;5055715;28;20180;-65
2022/12/04 09:17:35;;;;;;;0.10;0.10;;;3.20;99.90;;;;;;5055722;28;20264;-65
2022/12/04 09:20:02;;;;;;;0.00;0.00;;;3.30;99.90;;;;;;5055461;28;20254;-66
2022/12/04 09:22:28;;;;;;;0.30;0.25;;;3.30;99.90;;;;;;5055574;28;20181;-65
2022/12/04 09:24:53;;;;;;;0.00;0.00;;;3.30;99.90;;;;;;5055424;28;20591;-65
2022/12/04 09:27:19;;;;;;;0.00;0.00;;;3.30;99.90;;;;;;5055474;28;20256;-66
2022/12/04 09:29:45;;;;;;;0.00;0.00;;;3.40;99.90;;;;;;5055364;28;20657;-66
2022/12/04 09:32:10;;;;;;;0.30;0.30;;;3.40;99.90;;;;;;5055307;28;20702;-66
2022/12/04 09:34:36;;;;;;;0.22;0.22;;;3.40;99.90;;;;;;5055415;28;20597;-66
2022/12/04 09:37:01;;;;;;;0.00;0.00;;;3.40;99.90;;;;;;5054490;28;20178;-65
2022/12/04 09:39:27;;;;;;;0.00;0.00;;;3.40;99.90;;;;;;5059966;28;20198;-65
2022/12/04 09:42:08;;;;;;;0.05;0.05;;;3.30;99.90;;;;;;5055156;28;20173;-65
2022/12/04 09:44:33;;;;;;;0.22;0.22;;;3.30;99.90;;;;;;5054985;28;20217;-65
2022/12/04 09:47:04;;;;;;;0.00;0.00;;;3.30;99.90;;;;;;5055210;28;20201;-65
2022/12/04 09:49:51;;;;;;;0.20;0.20;;;3.40;99.90;;;;;;5054979;28;20672;-65
2022/12/04 09:52:46;;;;;;;0.03;0.03;;;3.40;99.90;;;;;;5054994;28;20615;-65
2022/12/04 09:55:23;;;;;;;0.08;0.08;;;3.40;99.90;;;;;;5054894;28;20239;-65
2022/12/04 09:57:53;;;;;;;0.00;0.00;;;3.40;99.90;;;;;;5054699;28;20185;-66
2022/12/04 10:00:19;;;;;;;0.03;0.03;;;3.40;99.90;;;;;;5054629;28;20177;-65
2022/12/04 10:02:51;;;;;;;0.00;0.00;;;3.40;99.90;;;;;;5054621;28;20641;-66
2022/12/04 10:05:48;;;;;;;0.28;0.28;;;3.50;99.90;;;;;;5054932;28;20533;-66
2022/12/04 10:08:24;;;;;;;0.30;0.30;;;3.50;99.90;;;;;;5054116;28;20719;-65
2022/12/04 10:10:58;;;;;;;0.10;0.10;;;3.50;99.90;;;;;;5055393;28;20310;-65
2022/12/04 10:13:33;;;;;;;0.10;0.10;;;3.50;99.90;;;;;;5053585;28;20217;-66
2022/12/04 10:16:13;;;;;;;0.20;0.20;;;3.50;99.90;;;;;;5054433;28;20180;-65
2022/12/04 10:19:13;;;;;;;0.10;0.10;;;3.50;99.90;;;;;;5054309;28;20235;-66
2022/12/04 10:21:47;;;;;;;1.05;0.98;;;3.50;99.90;;;;;;5045988;28;20679;-65
2022/12/04 10:24:25;;;;;;;0.90;0.45;;;3.60;99.90;;;;;;5054436;28;20188;-65
2022/12/04 10:26:55;;;;;;;0.10;0.10;;;3.60;99.90;;;;;;5054361;28;20165;-65
2022/12/04 10:29:26;;;;;;;0.00;0.00;;;3.60;99.90;;;;;;5054344;28;20260;-65
2022/12/04 10:31:54;;;;;;;0.63;0.63;;;3.70;99.90;;;;;;5054138;28;20180;-65
2022/12/04 10:34:25;;;;;;;0.60;0.60;;;3.70;99.90;;;;;;5052831;28;20221;-65
2022/12/04 10:36:53;;;;;;;0.00;0.00;;;3.70;99.90;;;;;;5053955;28;20174;-65
2022/12/04 10:39:33;;;;;;;0.00;0.00;;;3.70;99.90;;;;;;5054116;28;20177;-65
2022/12/04 10:42:43;;;;;;;0.00;0.00;;;3.70;99.90;;;;;;5054113;28;20197;-66
2022/12/04 10:45:11;;;;;;;0.10;0.10;;;3.80;99.90;;;;;;5030629;28;20198;-67
2022/12/04 10:47:42;;;;;;;0.00;0.00;;;3.90;99.90;;;;;;5043585;28;20675;-68
2022/12/04 10:50:17;;;;;;;0.00;0.00;;;3.90;99.90;;;;;;5053443;28;20650;-65
2022/12/04 10:52:43;;;;;;;0.00;0.00;;;4.00;99.90;;;;;;5053455;28;20177;-68
2022/12/04 10:55:08;;;;;;;0.57;0.35;;;4.00;99.90;;;;;;5053418;28;20544;-64
2022/12/04 10:57:40;;;;;;;0.20;0.20;;;4.10;99.90;;;;;;5052032;28;20551;-66
2022/12/04 11:00:29;;;;;;;0.20;0.20;;;4.20;99.90;;;;;;5053427;28;20633;-67
2022/12/04 11:02:59;;;;;;;0.00;0.00;;;4.20;99.90;;;;;;5038065;28;20188;-66
2022/12/04 11:05:32;;;;;;;0.00;0.00;;;4.20;99.90;;;;;;5042651;28;20193;-65
2022/12/04 11:07:59;;;;;;;0.00;0.00;;;4.20;99.90;;;;;;5035813;28;20189;-63
2022/12/04 11:10:43;;;;;;;0.15;0.15;;;4.20;99.90;;;;;;5053099;28;20313;-65
2022/12/04 11:13:11;;;;;;;0.10;0.10;;;4.20;99.90;;;;;;5053052;28;20300;-65
2022/12/04 11:15:51;;;;;;;0.10;0.10;;;4.20;99.90;;;;;;5052505;28;20176;-66
2022/12/04 11:18:22;;;;;;;0.43;0.20;;;4.20;99.90;;;;;;5053064;28;20272;-64
2022/12/04 11:21:04;;;;;;;0.00;0.00;;;4.20;99.90;;;;;;5053256;28;20176;-65
2022/12/04 11:23:48;;;;;;;0.00;0.00;;;4.20;99.90;;;;;;5052878;28;20184;-62
2022/12/04 11:26:14;;;;;;;0.00;0.00;;;4.20;99.90;;;;;;5053015;28;20550;-63
2022/12/04 11:28:45;;;;;;;0.10;0.10;;;4.20;99.90;;;;;;5052702;28;20572;-64
2022/12/04 11:31:19;;;;;;;0.05;0.05;;;4.20;99.90;;;;;;5052609;28;20657;-63
2022/12/04 11:33:58;;;;;;;0.00;0.00;;;4.20;99.90;;;;;;5052494;28;20232;-63
2022/12/04 11:36:29;;;;;;;0.10;0.10;;;4.20;99.90;;;;;;5052793;28;20177;-62
2022/12/04 11:39:10;;;;;;;0.15;0.15;;;4.20;99.90;;;;;;5051464;28;20572;-61
2022/12/04 11:41:36;;;;;;;0.00;0.00;;;4.20;99.90;;;;;;5052644;28;20653;-64
2022/12/04 11:44:04;;;;;;;0.10;0.10;;;4.20;99.90;;;;;;5052612;28;20181;-64
2022/12/04 11:46:32;;;;;;;0.00;0.00;;;4.20;99.90;;;;;;5052364;28;20238;-67
2022/12/04 11:48:58;;;;;;;0.00;0.00;;;4.20;99.90;;;;;;5052612;28;20498;-63
2022/12/04 11:51:27;;;;;;;0.10;0.10;;;4.20;99.90;;;;;;5052499;28;20180;-62
2022/12/04 11:54:05;;;;;;;0.00;0.00;;;4.20;99.90;;;;;;5052127;28;20217;-64
2022/12/04 11:56:38;;;;;;;0.08;0.05;;;4.20;99.90;;;;;;5051803;28;20185;-64
2022/12/04 11:59:34;;;;;;;0.00;0.00;;;4.20;99.90;;;;;;5052100;28;20177;-64
2022/12/04 12:02:30;;;;;;;0.00;0.00;;;4.20;99.90;;;;;;5043227;28;20625;-65
2022/12/04 12:05:17;;;;;;;0.00;0.00;;;4.20;99.90;;;;;;5050731;28;20264;-65
2022/12/04 12:08:04;;;;;;;0.00;0.00;;;4.20;99.90;;;;;;5056301;28;20252;-65
2022/12/04 12:10:43;;;;;;;0.00;0.00;;;4.20;99.90;;;;;;5056235;28;20252;-65
2022/12/04 12:13:30;;;;;;;0.00;0.00;;;4.20;99.90;;;;;;5032119;28;20569;-65
2022/12/04 12:16:13;;;;;;;0.00;0.00;;;4.20;99.90;;;;;;5041769;28;20193;-65
2022/12/04 12:19:03;;;;;;;0.08;0.08;;;4.20;99.90;;;;;;5051943;28;20185;-65
2022/12/04 12:21:40;;;;;;;0.00;0.00;;;4.20;99.90;;;;;;5051292;28;20196;-64
2022/12/04 12:24:43;;;;;;;0.10;0.10;;;4.20;99.90;;;;;;5051556;28;20191;-65
2022/12/04 12:27:33;;;;;;;0.00;0.00;;;4.30;99.90;;;;;;5043537;28;20175;-64
2022/12/04 12:30:08;;;;;;;0.22;0.22;;;4.30;99.90;;;;;;5051940;28;20182;-64
2022/12/04 12:33:11;;;;;;;0.00;0.00;;;4.30;99.90;;;;;;5050010;28;20277;-64
2022/12/04 12:35:47;;;;;;;0.00;0.00;;;4.20;99.90;;;;;;5052397;28;20180;-65
2022/12/04 12:38:20;;;;;;;0.00;0.00;;;4.20;99.90;;;;;;5051535;28;20180;-64
2022/12/04 12:40:54;;;;;;;0.10;0.10;;;4.20;99.90;;;;;;5051584;28;20262;-64
2022/12/04 12:43:37;;;;;;;0.25;0.25;;;4.30;99.90;;;;;;5051903;28;20180;-64
2022/12/04 12:46:13;;;;;;;0.00;0.00;;;4.30;99.90;;;;;;5048791;28;20182;-64
2022/12/04 12:48:44;;;;;;;0.00;0.00;;;4.30;99.90;;;;;;5051140;28;20188;-64
2022/12/04 12:51:25;;;;;;;0.00;0.00;;;4.40;99.90;;;;;;5055792;28;20177;-64
2022/12/04 12:53:54;;;;;;;0.10;0.10;;;4.30;99.90;;;;;;5039479;28;20208;-65
2022/12/04 12:56:29;;;;;;;0.00;0.00;;;4.30;99.90;;;;;;5051396;28;20208;-64
2022/12/04 12:58:57;;;;;;;0.00;0.00;;;4.30;99.90;;;;;;5051779;28;20170;-64
2022/12/04 13:01:43;;;;;;;0.00;0.00;;;4.40;99.90;;;;;;5051850;28;20542;-64
2022/12/04 13:04:21;;;;;;;0.40;0.40;;;4.40;99.90;;;;;;5036509;28;20216;-64
2022/12/04 13:06:52;;;;;;;0.00;0.00;;;4.40;99.90;;;;;;5045804;28;20564;-65
2022/12/04 13:09:25;;;;;;;0.32;0.28;;;4.40;99.90;;;;;;5052636;28;20636;-64
2022/12/04 13:11:57;;;;;;;0.00;0.00;;;4.40;99.90;;;;;;5040168;28;20241;-64
2022/12/04 13:14:23;;;;;;;1.17;0.40;;;4.40;99.90;;;;;;5050255;28;20568;-64
2022/12/04 13:16:59;;;;;;;0.63;0.63;;;4.40;99.90;;;;;;5051470;28;20177;-64
2022/12/04 13:19:42;;;;;;;0.08;0.08;;;4.40;99.90;;;;;;5031739;28;20227;-65
2022/12/04 13:22:27;;;;;;;0.20;0.20;;;4.40;99.90;;;;;;5032741;28;20683;-64
2022/12/04 13:25:12;;;;;;;0.00;0.00;;;4.40;99.90;;;;;;5039335;28;20177;-65
2022/12/04 13:27:46;;;;;;;0.17;0.17;;;4.40;99.90;;;;;;5051601;28;20335;-65
2022/12/04 13:30:22;;;;;;;0.10;0.10;;;4.30;99.90;;;;;;5051208;28;20309;-65